createdAt,value
2022-12-08T00:01:34.592Z,13.15
2022-12-08T00:04:03.621Z,15.00
2022-12-08T00:06:51.570Z,14.77
2022-12-08T00:09:24.438Z,13.48
2022-12-08T00:12:06.221Z,15.65
2022-12-08T00:14:39.193Z,14.18
2022-12-08T00:17:10.209Z,16.10
2022-12-08T00:19:44.376Z,13.00
2022-12-08T00:22:15.825Z,13.82
2022-12-08T00:24:49.252Z,14.27
2022-12-08T00:27:18.368Z,13.60
2022-12-08T00:29:46.628Z,15.27
2022-12-08T00:32:16.858Z,14.70
2022-12-08T00:34:44.541Z,14.10
2022-12-08T00:37:12.131Z,14.98
2022-12-08T00:39:39.839Z,14.75
2022-12-08T00:42:14.047Z,13.73
2022-12-08T00:44:43.016Z,12.93
2022-12-08T00:47:14.002Z,14.70
2022-12-08T00:49:44.982Z,13.35
2022-12-08T00:52:16.165Z,13.80
2022-12-08T00:54:44.145Z,14.30
2022-12-08T00:57:11.877Z,13.85
2022-12-08T00:59:40.008Z,14.90
2022-12-08T01:02:07.954Z,14.77
2022-12-08T01:04:35.959Z,17.85
2022-12-08T01:07:04.121Z,19.23
2022-12-08T01:09:32.811Z,19.70
2022-12-08T01:12:00.547Z,23.10
2022-12-08T01:14:28.241Z,22.25
2022-12-08T01:16:55.882Z,18.50
2022-12-08T01:19:23.793Z,17.27
2022-12-08T01:21:51.499Z,17.55
2022-12-08T01:24:21.273Z,18.35
2022-12-08T01:26:50.685Z,19.05
2022-12-08T01:29:19.024Z,20.98
2022-12-08T01:31:46.961Z,17.30
2022-12-08T01:34:14.915Z,19.48
2022-12-08T01:36:44.517Z,17.38
2022-12-08T01:39:17.246Z,20.48
2022-12-08T01:41:46.698Z,18.73
2022-12-08T01:44:14.216Z,18.15
2022-12-08T01:46:48.544Z,17.90
2022-12-08T01:49:21.306Z,18.70
2022-12-08T01:52:03.474Z,17.65
2022-12-08T01:54:37.243Z,20.40
2022-12-08T01:57:11.655Z,17.70
2022-12-08T01:59:47.176Z,19.55
2022-12-08T02:02:15.363Z,17.90
2022-12-08T02:04:43.372Z,20.05
2022-12-08T02:07:13.280Z,20.27
2022-12-08T02:09:42.311Z,18.83
2022-12-08T02:12:11.477Z,19.38
2022-12-08T02:14:40.048Z,16.70
2022-12-08T02:17:32.637Z,16.38
2022-12-08T02:20:22.630Z,17.90
2022-12-08T02:23:15.144Z,17.50
2022-12-08T02:26:17.813Z,18.15
2022-12-08T02:28:57.367Z,18.98
2022-12-08T02:36:40.437Z,17.83
2022-12-08T02:39:27.384Z,17.95
2022-12-08T02:42:17.674Z,17.52
2022-12-08T02:44:55.457Z,17.65
2022-12-08T02:47:25.191Z,18.05
2022-12-08T02:49:52.760Z,18.98
2022-12-08T02:52:20.354Z,18.27
2022-12-08T02:54:55.469Z,17.38
2022-12-08T02:57:28.989Z,19.77
2022-12-08T03:00:18.405Z,18.85
2022-12-08T03:05:31.729Z,19.58
2022-12-08T03:08:21.883Z,18.23
2022-12-08T03:11:15.426Z,17.10
2022-12-08T03:13:47.152Z,17.60
2022-12-08T03:16:18.801Z,15.75
2022-12-08T03:18:51.146Z,17.05
2022-12-08T03:21:21.069Z,18.02
2022-12-08T03:23:52.145Z,17.80
2022-12-08T03:26:36.192Z,19.42
2022-12-08T03:29:04.616Z,18.98
2022-12-08T03:31:37.816Z,17.80
2022-12-08T03:34:06.513Z,20.00
2022-12-08T03:36:34.624Z,18.50
2022-12-08T03:39:02.352Z,19.45
2022-12-08T03:41:30.013Z,17.88
2022-12-08T03:44:00.644Z,19.08
2022-12-08T03:48:57.891Z,18.95
2022-12-08T03:51:25.631Z,18.33
2022-12-08T03:53:53.463Z,16.63
2022-12-08T03:56:23.939Z,16.88
2022-12-08T03:58:51.938Z,17.42
2022-12-08T04:01:23.343Z,16.60
2022-12-08T04:03:51.362Z,17.58
2022-12-08T04:06:20.117Z,17.05
2022-12-08T04:08:48.524Z,19.15
2022-12-08T04:11:16.264Z,18.52
2022-12-08T04:13:44.674Z,16.10
2022-12-08T04:16:17.910Z,16.45
2022-12-08T04:18:45.965Z,19.33
2022-12-08T04:21:17.164Z,18.70
2022-12-08T04:23:44.931Z,19.98
2022-12-08T04:26:16.358Z,17.42
2022-12-08T04:28:44.105Z,19.33
2022-12-08T04:31:13.173Z,17.58
2022-12-08T04:33:41.017Z,16.00
2022-12-08T04:36:09.364Z,17.52
2022-12-08T04:38:37.078Z,16.55
2022-12-08T04:41:04.758Z,16.85
2022-12-08T04:43:32.428Z,16.23
2022-12-08T04:46:00.124Z,17.15
2022-12-08T04:48:27.889Z,17.55
2022-12-08T04:50:55.516Z,16.08
2022-12-08T04:53:23.249Z,16.33
2022-12-08T04:55:50.912Z,16.23
2022-12-08T04:58:21.578Z,17.38
2022-12-08T05:00:49.787Z,16.27
2022-12-08T05:03:17.632Z,16.77
2022-12-08T05:05:45.239Z,16.60
2022-12-08T05:08:13.218Z,16.08
2022-12-08T05:10:44.047Z,13.25
2022-12-08T05:13:11.679Z,14.45
2022-12-08T05:15:39.411Z,13.75
2022-12-08T05:18:07.512Z,15.65
2022-12-08T05:20:35.614Z,14.82
2022-12-08T05:23:03.545Z,14.60
2022-12-08T05:25:31.105Z,15.32
2022-12-08T05:28:24.670Z,15.00
2022-12-08T05:30:47.422Z,16.38
2022-12-08T05:33:15.088Z,16.05
2022-12-08T05:35:43.150Z,13.95
2022-12-08T05:38:11.683Z,14.05
2022-12-08T05:40:39.884Z,14.43
2022-12-08T05:43:07.512Z,14.30
2022-12-08T05:45:35.315Z,14.35
2022-12-08T05:48:05.717Z,13.10
2022-12-08T05:50:33.375Z,14.52
2022-12-08T05:53:04.208Z,14.73
2022-12-08T05:55:31.965Z,14.80
2022-12-08T05:58:04.564Z,14.55
2022-12-08T06:00:35.478Z,13.18
2022-12-08T06:03:09.023Z,14.38
2022-12-08T06:05:36.986Z,14.40
2022-12-08T06:08:04.723Z,13.15
2022-12-08T06:10:32.709Z,12.48
2022-12-08T06:13:00.764Z,15.18
2022-12-08T06:15:28.522Z,12.73
2022-12-08T06:18:00.214Z,14.25
2022-12-08T06:20:28.472Z,13.45
2022-12-08T06:22:56.387Z,12.77
2022-12-08T06:25:24.835Z,14.43
2022-12-08T06:27:52.451Z,14.48
2022-12-08T06:30:20.140Z,13.38
2022-12-08T06:32:47.723Z,13.15
2022-12-08T06:35:15.707Z,12.15
2022-12-08T06:37:49.085Z,14.73
2022-12-08T06:40:17.370Z,13.57
2022-12-08T06:42:46.527Z,13.18
2022-12-08T06:45:18.288Z,11.82
2022-12-08T06:47:49.345Z,12.13
2022-12-08T06:50:17.298Z,11.60
2022-12-08T06:52:57.032Z,12.57
2022-12-08T06:58:20.052Z,10.13
2022-12-08T07:00:47.752Z,11.63
2022-12-08T07:03:16.038Z,11.23
2022-12-08T07:05:43.876Z,12.80
2022-12-08T07:08:11.637Z,11.82
2022-12-08T07:10:39.715Z,12.98
2022-12-08T07:13:07.674Z,11.65
2022-12-08T07:15:35.782Z,13.30
2022-12-08T07:18:03.591Z,10.95
2022-12-08T07:20:31.371Z,11.75
2022-12-08T07:22:59.108Z,11.43
2022-12-08T07:25:27.128Z,14.07
2022-12-08T07:27:54.943Z,11.57
2022-12-08T07:30:22.525Z,12.85
2022-12-08T07:32:50.270Z,12.10
2022-12-08T07:35:18.283Z,13.48
2022-12-08T07:37:45.924Z,12.27
2022-12-08T07:40:13.992Z,12.32
2022-12-08T07:42:42.031Z,14.90
2022-12-08T07:45:10.073Z,14.95
2022-12-08T07:47:37.675Z,13.48
2022-12-08T07:50:09.143Z,13.27
2022-12-08T07:52:37.195Z,12.23
2022-12-08T07:55:05.228Z,13.23
2022-12-08T07:57:33.045Z,14.02
2022-12-08T08:00:00.731Z,14.00
2022-12-08T08:02:31.452Z,15.57
2022-12-08T08:04:59.548Z,17.20
2022-12-08T08:07:27.233Z,15.45
2022-12-08T08:09:55.175Z,15.85
2022-12-08T08:12:33.529Z,13.43
2022-12-08T08:15:02.986Z,14.73
2022-12-08T08:17:31.075Z,14.55
2022-12-08T08:20:02.375Z,13.77
2022-12-08T08:22:30.413Z,15.35
2022-12-08T08:24:58.229Z,15.23
2022-12-08T08:27:26.899Z,14.80
2022-12-08T08:29:54.881Z,14.68
2022-12-08T08:32:22.621Z,15.65
2022-12-08T08:34:53.689Z,14.00
2022-12-08T08:37:24.245Z,15.45
2022-12-08T08:39:51.964Z,16.08
2022-12-08T08:42:22.334Z,16.40
2022-12-08T08:44:52.809Z,16.95
2022-12-08T08:47:21.042Z,17.13
2022-12-08T08:49:48.743Z,16.75
2022-12-08T08:52:19.724Z,17.42
2022-12-08T08:54:52.438Z,18.25
2022-12-08T08:57:44.220Z,17.80
2022-12-08T09:00:15.678Z,17.35
2022-12-08T09:02:47.520Z,15.80
2022-12-08T09:05:15.405Z,14.32
2022-12-08T09:07:44.394Z,17.00
2022-12-08T09:10:13.595Z,15.45
2022-12-08T09:12:50.280Z,17.90
2022-12-08T09:15:40.009Z,20.27
2022-12-08T09:18:08.268Z,20.38
2022-12-08T09:20:36.524Z,22.23
2022-12-08T09:23:04.469Z,23.25
2022-12-08T09:25:34.290Z,19.52
2022-12-08T09:28:02.014Z,19.35
2022-12-08T09:30:29.793Z,20.63
2022-12-08T09:32:57.767Z,21.00
2022-12-08T09:35:25.840Z,21.30
2022-12-08T09:37:53.609Z,18.80
2022-12-08T09:40:23.861Z,19.25
2022-12-08T09:43:09.835Z,19.10
2022-12-08T09:45:38.331Z,19.75
2022-12-08T09:48:13.163Z,20.35
2022-12-08T09:50:58.023Z,21.27
2022-12-08T09:53:36.007Z,22.60
2022-12-08T09:56:31.277Z,18.85
2022-12-08T09:59:20.269Z,19.63
2022-12-08T10:01:48.125Z,21.75
2022-12-08T10:04:24.403Z,19.70
2022-12-08T10:07:37.270Z,19.80
2022-12-08T10:10:14.332Z,22.75
2022-12-08T10:13:08.279Z,22.58
2022-12-08T10:15:47.967Z,21.92
2022-12-08T10:18:23.059Z,21.58
2022-12-08T10:20:52.075Z,23.23
2022-12-08T10:23:33.045Z,24.00
2022-12-08T10:26:04.366Z,23.70
2022-12-08T10:28:33.846Z,24.40
2022-12-08T10:31:02.142Z,22.00
2022-12-08T10:33:33.503Z,21.15
2022-12-08T10:36:04.994Z,22.40
2022-12-08T10:38:35.277Z,29.67
2022-12-08T10:41:11.647Z,42.38
2022-12-08T10:43:52.996Z,35.40
2022-12-08T10:46:25.832Z,21.45
2022-12-08T10:48:56.001Z,22.38
2022-12-08T10:51:39.683Z,32.65
2022-12-08T10:54:37.439Z,30.55
2022-12-08T10:57:05.095Z,23.95
2022-12-08T10:59:34.000Z,25.05
2022-12-08T11:02:01.850Z,23.23
2022-12-08T11:04:36.835Z,19.70
2022-12-08T11:07:06.498Z,16.17
2022-12-08T11:09:46.823Z,15.48
2022-12-08T11:12:18.622Z,15.15
2022-12-08T11:14:55.810Z,14.18
2022-12-08T11:17:23.472Z,15.15
2022-12-08T11:20:09.733Z,13.20
2022-12-08T11:22:45.933Z,11.02
2022-12-08T11:25:22.391Z,11.38
2022-12-08T11:27:53.148Z,10.40
2022-12-08T11:30:27.776Z,10.18
2022-12-08T11:33:06.116Z,8.77
2022-12-08T11:35:40.281Z,8.77
2022-12-08T11:38:22.265Z,8.65
2022-12-08T11:41:16.456Z,9.00
2022-12-08T11:44:01.754Z,8.45
2022-12-08T11:46:38.321Z,7.63
2022-12-08T11:49:11.564Z,6.00
2022-12-08T11:51:51.904Z,5.43
2022-12-08T11:54:30.869Z,4.63
2022-12-08T11:57:04.860Z,5.97
2022-12-08T11:59:46.300Z,5.55
2022-12-08T12:02:19.748Z,5.18
2022-12-08T12:05:01.070Z,5.68
2022-12-08T12:07:37.910Z,6.32
2022-12-08T12:10:20.863Z,6.00
2022-12-08T12:13:00.583Z,6.15
2022-12-08T12:18:20.567Z,6.45
2022-12-08T12:20:54.127Z,5.50
2022-12-08T12:23:46.628Z,5.03
2022-12-08T12:26:22.201Z,4.88
2022-12-08T12:28:55.544Z,4.35
2022-12-08T12:31:33.164Z,4.30
2022-12-08T12:34:16.848Z,4.55
2022-12-08T12:36:57.503Z,5.45
2022-12-08T12:39:29.312Z,5.53
2022-12-08T12:42:02.845Z,4.35
2022-12-08T12:44:33.358Z,4.28
2022-12-08T12:47:03.240Z,4.13
2022-12-08T12:49:50.426Z,4.45
2022-12-08T12:52:23.914Z,4.28
2022-12-08T12:54:51.598Z,4.20
2022-12-08T12:57:19.076Z,3.28
2022-12-08T12:59:55.229Z,3.75
2022-12-08T13:02:28.734Z,3.13
2022-12-08T13:05:07.632Z,3.40
2022-12-08T13:07:52.852Z,3.03
2022-12-08T13:10:32.661Z,3.17
2022-12-08T13:13:05.603Z,2.80
2022-12-08T13:15:53.786Z,2.75
2022-12-08T13:18:49.259Z,3.08
2022-12-08T13:21:21.226Z,3.00
2022-12-08T13:24:10.385Z,9.63
2022-12-08T13:26:46.030Z,13.70
2022-12-08T13:29:15.414Z,6.35
2022-12-08T13:31:50.604Z,3.97
2022-12-08T13:34:25.961Z,4.03
2022-12-08T13:37:11.362Z,3.33
2022-12-08T13:40:06.934Z,3.90
2022-12-08T13:42:48.963Z,3.58
2022-12-08T13:45:59.091Z,3.53
2022-12-08T13:49:09.539Z,3.47
2022-12-08T13:53:22.482Z,4.05
2022-12-08T13:57:16.212Z,4.70
2022-12-08T13:59:45.599Z,4.20
2022-12-08T14:02:18.061Z,4.37
2022-12-08T14:07:40.517Z,4.28
2022-12-08T14:10:13.620Z,15.65
2022-12-08T14:12:45.791Z,12.15
2022-12-08T14:15:15.507Z,6.85
2022-12-08T14:20:29.597Z,5.95
2022-12-08T14:22:59.529Z,4.90
2022-12-08T14:28:04.832Z,5.78
2022-12-08T14:30:34.536Z,5.20
2022-12-08T14:33:04.498Z,6.70
2022-12-08T14:35:33.753Z,6.10
2022-12-08T14:38:04.660Z,6.70
2022-12-08T14:40:38.467Z,5.35
2022-12-08T14:43:13.724Z,7.10
2022-12-08T14:45:44.046Z,5.43
2022-12-08T14:48:26.484Z,5.85
2022-12-08T14:51:03.357Z,8.35
2022-12-08T14:53:44.803Z,10.95
2022-12-08T14:56:27.386Z,6.05
2022-12-08T14:59:16.208Z,7.50
2022-12-08T15:01:44.547Z,7.30
2022-12-08T15:04:12.128Z,6.47
2022-12-08T15:07:02.698Z,6.28
2022-12-08T15:09:43.330Z,6.25
2022-12-08T15:12:13.953Z,6.40
2022-12-08T15:14:55.309Z,7.93
2022-12-08T15:17:51.700Z,7.20
2022-12-08T15:20:35.596Z,8.77
2022-12-08T15:23:04.642Z,7.70
2022-12-08T15:25:32.488Z,9.50
2022-12-08T15:28:03.151Z,8.30
2022-12-08T15:30:31.326Z,9.00
2022-12-08T15:32:58.997Z,8.07
2022-12-08T15:35:26.721Z,7.93
2022-12-08T15:37:54.422Z,8.27
2022-12-08T15:40:23.116Z,8.63
2022-12-08T15:42:50.925Z,8.85
2022-12-08T15:45:19.571Z,10.48
2022-12-08T15:47:47.928Z,9.68
2022-12-08T15:50:19.176Z,10.68
2022-12-08T15:52:51.338Z,9.93
2022-12-08T15:55:22.556Z,14.65
2022-12-08T15:58:45.047Z,18.40
2022-12-08T16:00:55.684Z,33.33
2022-12-08T16:03:59.765Z,17.38
2022-12-08T16:09:27.341Z,9.63
2022-12-08T16:12:18.025Z,9.35
2022-12-08T16:17:36.364Z,9.68
2022-12-08T16:20:11.226Z,9.68
2022-12-08T16:22:54.491Z,9.32
2022-12-08T16:25:36.355Z,9.45
2022-12-08T16:28:45.121Z,10.27
2022-12-08T16:31:02.726Z,9.95
2022-12-08T16:33:30.294Z,11.77
2022-12-08T16:35:57.982Z,10.55
2022-12-08T16:38:25.739Z,10.98
2022-12-08T16:41:11.682Z,11.02
2022-12-08T16:43:42.331Z,11.15
2022-12-08T16:46:19.375Z,10.50
2022-12-08T16:48:50.364Z,9.55
2022-12-08T16:51:25.100Z,11.75
2022-12-08T16:53:56.900Z,12.73
2022-12-08T16:56:30.629Z,11.77
2022-12-08T16:59:00.559Z,11.93
2022-12-08T17:01:28.806Z,12.75
2022-12-08T17:04:29.282Z,12.07
2022-12-08T17:06:44.205Z,16.85
2022-12-08T17:09:11.904Z,15.70
2022-12-08T17:11:43.443Z,13.20
2022-12-08T17:14:15.145Z,12.73
2022-12-08T17:16:43.201Z,12.32
2022-12-08T17:19:13.277Z,12.07
2022-12-08T17:21:41.417Z,12.35
2022-12-08T17:24:09.782Z,12.20
2022-12-08T17:26:37.349Z,12.73
2022-12-08T17:29:05.170Z,12.48
2022-12-08T17:31:33.484Z,12.88
2022-12-08T17:34:04.955Z,16.02
2022-12-08T17:36:32.871Z,14.68
2022-12-08T17:39:01.212Z,15.05
2022-12-08T17:41:30.607Z,15.13
2022-12-08T17:43:58.272Z,16.05
2022-12-08T17:46:26.804Z,12.70
2022-12-08T17:48:54.664Z,13.57
2022-12-08T17:51:22.747Z,15.60
2022-12-08T17:53:50.675Z,14.85
2022-12-08T17:56:21.934Z,13.38
2022-12-08T17:58:54.850Z,15.20
2022-12-08T18:01:24.551Z,15.93
2022-12-08T18:03:52.581Z,16.98
2022-12-08T18:06:22.358Z,17.75
2022-12-08T18:08:52.197Z,16.75
2022-12-08T18:11:32.443Z,15.73
2022-12-08T18:14:03.187Z,16.65
2022-12-08T18:16:31.341Z,15.90
2022-12-08T18:18:59.540Z,17.58
2022-12-08T18:21:27.242Z,17.88
2022-12-08T18:23:54.816Z,17.23
2022-12-08T18:26:23.347Z,18.05
2022-12-08T18:28:51.107Z,18.98
2022-12-08T18:31:21.788Z,21.10
2022-12-08T18:33:50.842Z,21.23
2022-12-08T18:36:22.091Z,23.40
2022-12-08T18:38:50.213Z,22.38
2022-12-08T18:41:24.492Z,20.90
2022-12-08T18:43:53.428Z,22.30
2022-12-08T18:46:21.622Z,22.98
2022-12-08T18:48:51.805Z,21.48
2022-12-08T18:51:24.220Z,20.23
2022-12-08T18:53:52.860Z,20.05
2022-12-08T18:56:25.366Z,19.90
2022-12-08T18:58:57.367Z,19.98
2022-12-08T19:01:29.286Z,22.70
2022-12-08T19:04:26.761Z,22.83
2022-12-08T19:06:47.141Z,20.80
2022-12-08T19:09:15.915Z,18.27
2022-12-08T19:11:44.203Z,21.23
2022-12-08T19:14:15.303Z,21.48
2022-12-08T19:16:46.594Z,23.00
2022-12-08T19:19:16.958Z,24.55
2022-12-08T19:21:46.733Z,23.15
2022-12-08T19:24:18.245Z,22.65
2022-12-08T19:26:46.474Z,23.52
2022-12-08T19:29:16.931Z,22.70
2022-12-08T19:31:44.849Z,22.02
2022-12-08T19:34:14.295Z,23.48
2022-12-08T19:36:43.065Z,21.65
2022-12-08T19:39:37.956Z,22.60
2022-12-08T19:42:39.062Z,21.30
2022-12-08T19:45:17.375Z,23.75
2022-12-08T19:47:45.318Z,21.98
2022-12-08T19:50:33.532Z,23.50
2022-12-08T19:53:01.559Z,21.25
2022-12-08T19:55:29.476Z,21.85
2022-12-08T19:57:57.325Z,20.63
2022-12-08T20:00:25.636Z,24.85
2022-12-08T20:02:53.583Z,23.70
2022-12-08T20:05:24.355Z,22.65
2022-12-08T20:07:55.557Z,22.25
2022-12-08T20:10:35.336Z,21.52
2022-12-08T20:13:22.509Z,21.35
2022-12-08T20:15:50.631Z,24.77
2022-12-08T20:18:18.482Z,25.88
2022-12-08T20:20:47.471Z,25.02
2022-12-08T20:23:16.475Z,26.45
2022-12-08T20:25:45.624Z,23.48
2022-12-08T20:28:13.508Z,22.90
2022-12-08T20:30:42.536Z,22.05
2022-12-08T20:33:13.636Z,20.98
2022-12-08T20:35:41.715Z,20.25
2022-12-08T20:38:10.480Z,19.65
2022-12-08T20:40:47.135Z,19.57
2022-12-08T20:43:15.189Z,16.60
2022-12-08T20:45:42.788Z,18.88
2022-12-08T20:48:10.728Z,16.05
2022-12-08T20:50:38.634Z,16.70
2022-12-08T20:53:07.075Z,15.07
2022-12-08T20:55:43.739Z,16.13
2022-12-08T20:58:12.338Z,17.95
2022-12-08T21:00:40.210Z,17.03
2022-12-08T21:03:08.366Z,16.88
2022-12-08T21:05:39.112Z,17.13
2022-12-08T21:08:07.956Z,17.02
2022-12-08T21:10:43.663Z,20.08
2022-12-08T21:13:15.095Z,19.35
2022-12-08T21:15:46.701Z,19.05
2022-12-08T21:18:15.986Z,25.53
2022-12-08T21:20:44.534Z,29.77
2022-12-08T21:23:12.356Z,27.92
2022-12-08T21:25:42.301Z,29.92
2022-12-08T21:28:10.874Z,21.70
2022-12-08T21:30:40.206Z,21.08
2022-12-08T21:33:08.257Z,22.25
2022-12-08T21:35:36.028Z,22.15
2022-12-08T21:38:06.510Z,17.55
2022-12-08T21:40:35.347Z,18.80
2022-12-08T21:43:04.230Z,13.57
2022-12-08T21:45:35.407Z,12.18
2022-12-08T21:48:11.045Z,14.65
2022-12-08T21:50:42.010Z,11.60
2022-12-08T21:53:10.924Z,12.73
2022-12-08T21:55:39.453Z,10.88
2022-12-08T21:58:07.232Z,10.95
2022-12-08T22:00:35.121Z,11.05
2022-12-08T22:03:04.113Z,10.90
2022-12-08T22:05:32.788Z,11.45
2022-12-08T22:08:00.732Z,11.35
2022-12-08T22:10:28.671Z,11.40
2022-12-08T22:12:59.229Z,11.05
2022-12-08T22:15:30.004Z,12.43
2022-12-08T22:17:58.712Z,11.20
2022-12-08T22:20:26.368Z,10.73
2022-12-08T22:22:57.492Z,10.05
2022-12-08T22:25:25.414Z,8.65
2022-12-08T22:27:55.250Z,10.35
2022-12-08T22:30:22.940Z,10.20
2022-12-08T22:32:54.276Z,10.02
2022-12-08T22:35:22.551Z,10.90
2022-12-08T22:37:50.239Z,10.57
2022-12-08T22:40:18.311Z,11.15
2022-12-08T22:42:47.107Z,12.07
2022-12-08T22:45:15.319Z,10.98
2022-12-08T22:47:45.689Z,12.18
2022-12-08T22:50:13.777Z,11.45
2022-12-08T22:52:42.101Z,11.65
2022-12-08T22:55:10.259Z,11.68
2022-12-08T22:57:37.979Z,12.15
2022-12-08T23:00:07.542Z,10.25
2022-12-08T23:02:38.258Z,9.65
2022-12-08T23:05:06.685Z,10.95
2022-12-08T23:07:34.537Z,9.73
2022-12-08T23:10:02.472Z,10.05
2022-12-08T23:12:31.964Z,10.60
2022-12-08T23:17:33.890Z,9.73
2022-12-08T23:20:01.769Z,8.88
2022-12-08T23:22:31.449Z,8.95
2022-12-08T23:24:59.496Z,8.77
2022-12-08T23:27:27.493Z,8.30
2022-12-08T23:29:55.772Z,7.25
2022-12-08T23:32:23.646Z,8.35
2022-12-08T23:34:52.363Z,8.35
2022-12-08T23:37:20.473Z,8.40
2022-12-08T23:39:48.492Z,8.02
2022-12-08T23:42:17.717Z,7.78
2022-12-08T23:44:45.400Z,8.40
2022-12-08T23:47:13.385Z,9.90
2022-12-08T23:49:47.616Z,9.50
2022-12-08T23:52:15.733Z,8.52
2022-12-08T23:54:44.986Z,9.20
2022-12-08T23:57:12.861Z,10.02
2022-12-08T23:59:40.663Z,11.20
